createdAt,value
2019-02-15T00:02:11.925Z,12.30
2019-02-15T00:04:42.911Z,14.87
2019-02-15T00:07:14.156Z,18.90
2019-02-15T00:09:45.374Z,15.50
2019-02-15T00:12:16.384Z,18.57
2019-02-15T00:14:49.025Z,18.02
2019-02-15T00:17:38.152Z,19.87
2019-02-15T00:20:14.050Z,20.80
2019-02-15T00:22:45.139Z,14.03
2019-02-15T00:25:16.135Z,21.63
2019-02-15T00:27:47.187Z,13.43
2019-02-15T00:30:18.336Z,12.27
2019-02-15T00:32:49.379Z,15.53
2019-02-15T00:35:20.539Z,14.13
2019-02-15T00:37:51.500Z,18.05
2019-02-15T00:40:22.660Z,12.35
2019-02-15T00:42:53.640Z,20.80
2019-02-15T00:45:27.227Z,14.83
2019-02-15T00:48:05.169Z,21.53
2019-02-15T00:50:51.138Z,16.30
2019-02-15T00:53:53.431Z,10.60
2019-02-15T00:56:43.312Z,9.33
2019-02-15T00:59:20.681Z,9.03
2019-02-15T01:02:08.507Z,12.23
2019-02-15T01:04:57.550Z,13.80
2019-02-15T01:07:53.327Z,17.53
2019-02-15T01:10:36.314Z,9.33
2019-02-15T01:13:10.853Z,9.97
2019-02-15T01:15:41.909Z,9.40
2019-02-15T01:18:13.148Z,14.50
2019-02-15T01:20:44.270Z,9.30
2019-02-15T01:23:15.287Z,9.07
2019-02-15T01:25:52.804Z,15.53
2019-02-15T01:28:31.717Z,7.30
2019-02-15T01:31:33.780Z,12.47
2019-02-15T01:34:16.710Z,9.90
2019-02-15T01:37:10.157Z,9.07
2019-02-15T01:40:01.210Z,12.33
2019-02-15T01:42:50.760Z,10.67
2019-02-15T01:45:29.086Z,8.73
2019-02-15T01:48:00.276Z,10.27
2019-02-15T01:50:31.328Z,12.23
2019-02-15T01:53:02.409Z,11.63
2019-02-15T01:55:33.491Z,9.57
2019-02-15T01:58:04.598Z,10.20
2019-02-15T02:00:36.434Z,9.43
2019-02-15T02:03:07.407Z,7.93
2019-02-15T02:05:38.522Z,9.03
2019-02-15T02:08:16.029Z,8.20
2019-02-15T02:10:47.099Z,12.10
2019-02-15T02:13:18.217Z,8.40
2019-02-15T02:15:49.294Z,7.90
2019-02-15T02:18:20.374Z,9.10
2019-02-15T02:20:51.524Z,9.73
2019-02-15T02:23:22.680Z,8.23
2019-02-15T02:25:53.955Z,12.77
2019-02-15T02:28:25.067Z,9.27
2019-02-15T02:30:56.254Z,9.27
2019-02-15T02:33:27.358Z,13.97
2019-02-15T02:35:58.550Z,8.80
2019-02-15T02:38:30.760Z,7.47
2019-02-15T02:41:03.386Z,10.43
2019-02-15T02:43:34.512Z,18.13
2019-02-15T02:46:05.667Z,9.03
2019-02-15T02:48:36.816Z,9.20
2019-02-15T02:51:08.014Z,12.00
2019-02-15T02:53:39.168Z,8.13
2019-02-15T02:56:10.365Z,9.47
2019-02-15T02:58:41.461Z,7.80
2019-02-15T03:01:12.653Z,13.60
2019-02-15T03:03:43.826Z,9.03
2019-02-15T03:06:14.983Z,5.43
2019-02-15T03:08:46.148Z,7.30
2019-02-15T03:11:17.168Z,7.87
2019-02-15T03:13:48.157Z,7.00
2019-02-15T03:16:19.280Z,6.93
2019-02-15T03:18:50.392Z,14.17
2019-02-15T03:21:25.783Z,8.43
2019-02-15T03:23:56.975Z,11.50
2019-02-15T03:26:28.275Z,10.23
2019-02-15T03:28:59.289Z,4.83
2019-02-15T03:31:30.491Z,9.13
2019-02-15T03:34:01.754Z,4.53
2019-02-15T03:36:41.648Z,4.90
2019-02-15T03:39:17.497Z,5.77
2019-02-15T03:41:48.628Z,6.63
2019-02-15T03:44:22.591Z,4.93
2019-02-15T03:46:52.541Z,7.87
2019-02-15T03:49:24.536Z,7.00
2019-02-15T03:51:55.727Z,4.40
2019-02-15T03:54:27.861Z,4.33
2019-02-15T03:56:59.072Z,3.87
2019-02-15T03:59:30.272Z,5.57
2019-02-15T04:02:01.600Z,6.05
2019-02-15T04:04:32.768Z,7.87
2019-02-15T04:07:03.985Z,11.33
2019-02-15T04:09:35.081Z,4.90
2019-02-15T04:12:06.288Z,5.93
2019-02-15T04:14:37.431Z,8.27
2019-02-15T04:17:08.641Z,5.37
2019-02-15T04:19:39.776Z,8.10
2019-02-15T04:22:10.848Z,5.03
2019-02-15T04:24:41.842Z,7.80
2019-02-15T04:27:12.895Z,6.17
2019-02-15T04:29:44.042Z,8.83
2019-02-15T04:32:15.134Z,12.40
2019-02-15T04:34:46.187Z,10.30
2019-02-15T04:37:17.404Z,10.13
2019-02-15T04:39:48.494Z,10.43
2019-02-15T04:42:19.520Z,11.57
2019-02-15T04:44:50.519Z,11.10
2019-02-15T04:47:21.608Z,12.63
2019-02-15T04:49:52.710Z,7.87
2019-02-15T04:52:23.738Z,9.30
2019-02-15T04:54:54.837Z,12.23
2019-02-15T04:57:25.942Z,13.87
2019-02-15T04:59:57.069Z,15.90
2019-02-15T05:02:28.220Z,15.57
2019-02-15T05:04:59.300Z,16.50
2019-02-15T05:07:30.370Z,12.97
2019-02-15T05:10:01.545Z,15.60
2019-02-15T05:12:32.676Z,15.23
2019-02-15T05:15:03.834Z,16.17
2019-02-15T05:17:34.980Z,15.00
2019-02-15T05:20:06.412Z,15.33
2019-02-15T05:22:37.633Z,12.87
2019-02-15T05:25:08.851Z,13.70
2019-02-15T05:27:39.896Z,18.83
2019-02-15T05:30:11.082Z,14.03
2019-02-15T05:32:42.140Z,17.20
2019-02-15T05:35:13.301Z,13.10
2019-02-15T05:37:44.337Z,19.23
2019-02-15T05:40:15.513Z,24.77
2019-02-15T05:42:46.717Z,14.17
2019-02-15T05:45:17.779Z,13.93
2019-02-15T05:47:48.800Z,20.40
2019-02-15T05:50:20.109Z,12.90
2019-02-15T05:52:51.335Z,13.00
2019-02-15T05:55:22.500Z,14.30
2019-02-15T05:57:53.598Z,11.00
2019-02-15T06:00:36.440Z,14.40
2019-02-15T06:02:58.770Z,10.93
2019-02-15T06:05:29.823Z,12.27
2019-02-15T06:08:00.863Z,15.17
2019-02-15T06:10:31.927Z,12.82
2019-02-15T06:13:02.980Z,10.58
2019-02-15T06:15:37.194Z,14.17
2019-02-15T06:18:08.440Z,13.68
2019-02-15T06:20:39.474Z,17.00
2019-02-15T06:23:10.567Z,12.20
2019-02-15T06:25:41.676Z,14.83
2019-02-15T06:28:12.864Z,14.70
2019-02-15T06:30:43.973Z,12.50
2019-02-15T06:33:16.203Z,9.37
2019-02-15T06:35:47.217Z,14.23
2019-02-15T06:38:18.339Z,13.50
2019-02-15T06:40:49.659Z,12.13
2019-02-15T06:43:20.888Z,14.23
2019-02-15T06:45:52.050Z,12.07
2019-02-15T06:48:23.212Z,12.70
2019-02-15T06:50:54.303Z,15.87
2019-02-15T06:53:25.472Z,10.00
2019-02-15T06:55:56.622Z,13.03
2019-02-15T06:58:27.868Z,12.30
2019-02-15T07:01:17.108Z,22.70
2019-02-15T07:04:13.450Z,13.33
2019-02-15T07:06:44.575Z,12.70
2019-02-15T07:09:15.746Z,11.00
2019-02-15T07:11:46.834Z,12.37
2019-02-15T07:14:17.848Z,12.50
2019-02-15T07:16:48.943Z,12.03
2019-02-15T07:19:20.104Z,17.13
2019-02-15T07:21:51.321Z,13.95
2019-02-15T07:24:22.499Z,16.60
2019-02-15T07:26:53.759Z,13.13
2019-02-15T07:29:24.798Z,15.50
2019-02-15T07:31:55.899Z,11.13
2019-02-15T07:34:27.074Z,11.87
2019-02-15T07:36:58.148Z,14.33
2019-02-15T07:39:29.272Z,17.30
2019-02-15T07:42:00.428Z,10.33
2019-02-15T07:44:32.529Z,13.87
2019-02-15T07:47:03.753Z,18.37
2019-02-15T07:49:34.901Z,25.67
2019-02-15T07:52:06.094Z,14.63
2019-02-15T07:54:37.311Z,16.53
2019-02-15T07:57:08.449Z,13.83
2019-02-15T07:59:39.590Z,17.67
2019-02-15T08:02:10.853Z,16.93
2019-02-15T08:04:41.879Z,11.83
2019-02-15T08:07:12.969Z,14.05
2019-02-15T08:09:44.043Z,15.95
2019-02-15T08:12:15.221Z,15.27
2019-02-15T08:14:46.343Z,15.70
2019-02-15T08:17:17.620Z,15.78
2019-02-15T08:19:48.729Z,29.00
2019-02-15T08:22:19.822Z,17.37
2019-02-15T08:24:50.838Z,22.60
2019-02-15T08:27:21.995Z,13.28
2019-02-15T08:29:53.117Z,14.37
2019-02-15T08:32:24.288Z,16.20
2019-02-15T08:34:55.322Z,13.97
2019-02-15T08:37:26.477Z,20.30
2019-02-15T08:39:57.605Z,15.03
2019-02-15T08:42:28.789Z,11.87
2019-02-15T08:44:59.815Z,21.47
2019-02-15T08:47:30.882Z,17.33
2019-02-15T08:50:01.957Z,18.17
2019-02-15T08:52:34.026Z,17.37
2019-02-15T08:55:05.259Z,14.00
2019-02-15T08:57:36.337Z,23.57
2019-02-15T09:00:09.591Z,18.40
2019-02-15T09:02:40.560Z,13.40
2019-02-15T09:05:12.444Z,25.50
2019-02-15T09:07:43.424Z,13.20
2019-02-15T09:10:15.442Z,18.17
2019-02-15T09:12:46.547Z,17.60
2019-02-15T09:15:19.686Z,16.40
2019-02-15T09:17:50.744Z,13.70
2019-02-15T09:20:22.057Z,11.07
2019-02-15T09:22:53.026Z,15.27
2019-02-15T09:25:24.183Z,15.00
2019-02-15T09:28:14.294Z,14.23
2019-02-15T09:30:49.700Z,20.87
2019-02-15T09:33:20.745Z,16.90
2019-02-15T09:35:51.935Z,20.53
2019-02-15T09:38:22.970Z,15.60
2019-02-15T09:40:54.163Z,18.00
2019-02-15T09:43:25.243Z,18.03
2019-02-15T09:45:56.238Z,18.43
2019-02-15T09:48:27.279Z,12.70
2019-02-15T09:50:59.443Z,27.70
2019-02-15T09:53:31.486Z,28.83
2019-02-15T09:56:02.676Z,20.60
2019-02-15T09:58:33.729Z,27.02
2019-02-15T10:01:04.787Z,26.83
2019-02-15T10:03:35.939Z,33.40
2019-02-15T10:06:07.032Z,13.83
2019-02-15T10:08:38.076Z,18.40
2019-02-15T10:11:09.146Z,22.93
2019-02-15T10:13:40.128Z,33.43
2019-02-15T10:16:11.321Z,26.87
2019-02-15T10:18:42.291Z,38.90
2019-02-15T10:21:13.398Z,18.43
2019-02-15T10:23:44.375Z,21.73
2019-02-15T10:26:15.476Z,33.63
2019-02-15T10:28:46.500Z,35.33
2019-02-15T10:31:17.544Z,32.43
2019-02-15T10:33:48.585Z,27.03
2019-02-15T10:36:19.668Z,14.50
2019-02-15T10:38:50.630Z,14.57
2019-02-15T10:41:21.629Z,16.20
2019-02-15T10:43:52.698Z,11.10
2019-02-15T10:46:23.783Z,25.07
2019-02-15T10:48:54.886Z,22.47
2019-02-15T10:51:26.059Z,32.60
2019-02-15T10:54:00.096Z,18.53
2019-02-15T10:56:30.882Z,15.67
2019-02-15T10:59:02.073Z,13.73
2019-02-15T11:01:33.050Z,17.90
2019-02-15T11:04:04.071Z,18.97
2019-02-15T11:06:35.207Z,19.20
2019-02-15T11:09:08.357Z,10.00
2019-02-15T11:11:39.356Z,23.17
2019-02-15T11:14:10.404Z,9.45
2019-02-15T11:16:47.299Z,25.50
2019-02-15T11:19:14.259Z,19.53
2019-02-15T11:21:45.427Z,16.57
2019-02-15T11:24:16.466Z,17.73
2019-02-15T11:26:47.531Z,14.40
2019-02-15T11:29:18.601Z,11.43
2019-02-15T11:31:49.799Z,13.73
2019-02-15T11:34:20.814Z,12.00
2019-02-15T11:36:51.880Z,16.47
2019-02-15T11:39:22.892Z,19.23
2019-02-15T11:41:54.051Z,11.53
2019-02-15T11:44:25.273Z,9.43
2019-02-15T11:46:56.961Z,14.20
2019-02-15T11:49:28.081Z,11.10
2019-02-15T11:51:59.153Z,22.00
2019-02-15T11:54:30.202Z,7.47
2019-02-15T11:57:01.540Z,6.60
2019-02-15T11:59:32.664Z,9.68
2019-02-15T12:02:06.295Z,14.10
2019-02-15T12:04:36.483Z,10.07
2019-02-15T12:07:07.547Z,7.17
2019-02-15T12:09:38.531Z,12.23
2019-02-15T12:12:10.956Z,4.95
2019-02-15T12:14:42.356Z,10.85
2019-02-15T12:17:13.486Z,4.47
2019-02-15T12:19:44.734Z,4.78
2019-02-15T12:22:16.033Z,13.88
2019-02-15T12:24:47.267Z,6.30
2019-02-15T12:27:18.421Z,7.00
2019-02-15T12:29:49.411Z,7.40
2019-02-15T12:32:20.482Z,5.60
2019-02-15T12:34:51.536Z,9.55
2019-02-15T12:37:22.716Z,9.88
2019-02-15T12:39:53.766Z,7.75
2019-02-15T12:42:25.041Z,12.65
2019-02-15T12:44:56.104Z,5.12
2019-02-15T12:47:27.171Z,5.60
2019-02-15T12:49:58.216Z,6.03
2019-02-15T12:52:29.259Z,11.10
2019-02-15T12:55:00.279Z,5.00
2019-02-15T12:57:31.343Z,5.60
2019-02-15T13:00:02.432Z,5.37
2019-02-15T13:02:33.604Z,9.60
2019-02-15T13:05:05.098Z,5.15
2019-02-15T13:07:36.269Z,4.95
2019-02-15T13:10:08.939Z,12.50
2019-02-15T13:12:39.931Z,8.03
2019-02-15T13:15:11.222Z,9.33
2019-02-15T13:17:42.381Z,13.15
2019-02-15T13:20:13.624Z,5.08
2019-02-15T13:22:44.730Z,10.57
2019-02-15T13:25:15.744Z,4.00
2019-02-15T13:27:46.747Z,3.65
2019-02-15T13:30:17.811Z,4.53
2019-02-15T13:32:48.896Z,12.60
2019-02-15T13:35:20.091Z,12.82
2019-02-15T13:37:51.179Z,6.97
2019-02-15T13:40:22.261Z,7.25
2019-02-15T13:42:53.264Z,5.62
2019-02-15T13:45:24.370Z,5.25
2019-02-15T13:47:55.552Z,4.87
2019-02-15T13:50:26.538Z,8.50
2019-02-15T13:52:57.526Z,4.28
2019-02-15T13:55:28.648Z,16.12
2019-02-15T13:57:59.803Z,4.28
2019-02-15T14:00:30.883Z,4.10
2019-02-15T14:03:01.869Z,4.78
2019-02-15T14:05:32.852Z,4.12
2019-02-15T14:08:04.878Z,8.08
2019-02-15T14:10:35.971Z,24.57
2019-02-15T14:13:07.238Z,4.62
2019-02-15T14:15:38.355Z,6.30
2019-02-15T14:18:09.346Z,5.03
2019-02-15T14:20:40.835Z,8.20
2019-02-15T14:23:13.910Z,6.22
2019-02-15T14:25:44.555Z,8.68
2019-02-15T14:28:15.832Z,5.47
2019-02-15T14:30:46.834Z,5.73
2019-02-15T14:33:17.965Z,6.55
2019-02-15T14:35:48.954Z,9.63
2019-02-15T14:38:20.064Z,6.03
2019-02-15T14:40:51.087Z,17.75
2019-02-15T14:43:22.110Z,9.48
2019-02-15T14:45:53.125Z,11.03
2019-02-15T14:48:24.365Z,16.82
2019-02-15T14:50:55.433Z,26.40
2019-02-15T14:53:26.642Z,12.05
2019-02-15T14:55:57.740Z,6.47
2019-02-15T14:58:29.009Z,8.73
2019-02-15T15:01:00.081Z,17.37
2019-02-15T15:03:31.293Z,7.12
2019-02-15T15:06:02.526Z,11.68
2019-02-15T15:08:33.619Z,9.65
2019-02-15T15:11:06.167Z,10.13
2019-02-15T15:13:37.238Z,20.23
2019-02-15T15:16:08.428Z,11.93
2019-02-15T15:18:39.552Z,11.63
2019-02-15T15:21:10.694Z,18.98
2019-02-15T15:23:41.757Z,10.53
2019-02-15T15:26:12.873Z,9.90
2019-02-15T15:28:44.015Z,16.83
2019-02-15T15:31:15.146Z,19.23
2019-02-15T15:33:46.455Z,16.17
2019-02-15T15:36:18.341Z,12.33
2019-02-15T15:38:49.723Z,22.47
2019-02-15T15:41:20.799Z,15.90
2019-02-15T15:43:51.899Z,15.23
2019-02-15T15:46:23.050Z,19.57
2019-02-15T15:48:55.206Z,23.50
2019-02-15T15:51:26.537Z,50.00
2019-02-15T15:53:57.898Z,15.87
2019-02-15T15:56:28.956Z,24.27
2019-02-15T15:58:59.968Z,19.27
2019-02-15T16:01:31.086Z,18.13
2019-02-15T16:04:02.344Z,26.30
2019-02-15T16:06:33.543Z,22.05
2019-02-15T16:09:06.183Z,23.73
2019-02-15T16:11:37.574Z,15.30
2019-02-15T16:14:08.596Z,17.45
2019-02-15T16:16:39.736Z,24.53
2019-02-15T16:19:10.903Z,24.47
2019-02-15T16:21:44.478Z,33.43
2019-02-15T16:24:15.306Z,27.95
2019-02-15T16:26:46.629Z,27.50
2019-02-15T16:29:17.710Z,33.33
2019-02-15T16:31:48.802Z,27.90
2019-02-15T16:34:19.852Z,26.80
2019-02-15T16:36:50.998Z,16.43
2019-02-15T16:39:22.121Z,19.33
2019-02-15T16:41:53.230Z,44.57
2019-02-15T16:44:24.527Z,21.07
2019-02-15T16:46:55.823Z,28.17
2019-02-15T16:49:26.999Z,19.80
2019-02-15T16:51:58.112Z,21.70
2019-02-15T16:54:29.171Z,23.83
2019-02-15T16:57:00.200Z,17.20
2019-02-15T16:59:31.366Z,23.53
2019-02-15T17:02:02.459Z,40.70
2019-02-15T17:04:33.618Z,20.30
2019-02-15T17:07:04.815Z,21.20
2019-02-15T17:09:35.887Z,20.57
2019-02-15T17:12:07.010Z,22.43
2019-02-15T17:14:38.033Z,23.70
2019-02-15T17:17:09.304Z,18.43
2019-02-15T17:19:40.391Z,22.80
2019-02-15T17:22:11.498Z,25.67
2019-02-15T17:24:42.630Z,18.30
2019-02-15T17:27:13.643Z,17.10
2019-02-15T17:29:44.643Z,17.43
2019-02-15T17:32:15.861Z,24.30
2019-02-15T17:34:47.132Z,30.40
2019-02-15T17:37:18.386Z,29.53
2019-02-15T17:39:49.455Z,20.27
2019-02-15T17:42:20.761Z,37.33
2019-02-15T17:44:51.936Z,16.30
2019-02-15T17:47:22.941Z,23.53
2019-02-15T17:49:54.051Z,47.17
2019-02-15T17:52:25.085Z,47.03
2019-02-15T17:54:57.151Z,32.37
2019-02-15T17:57:28.340Z,22.83
2019-02-15T17:59:59.364Z,26.00
2019-02-15T18:02:30.436Z,31.53
2019-02-15T18:05:01.449Z,42.40
2019-02-15T18:07:32.558Z,38.80
2019-02-15T18:10:03.884Z,25.70
2019-02-15T18:12:34.879Z,34.73
2019-02-15T18:15:06.207Z,32.13
2019-02-15T18:17:37.267Z,21.53
2019-02-15T18:20:08.693Z,45.17
2019-02-15T18:22:39.780Z,40.27
2019-02-15T18:25:11.916Z,55.23
2019-02-15T18:27:42.933Z,46.27
2019-02-15T18:30:14.205Z,49.63
2019-02-15T18:32:45.365Z,48.20
2019-02-15T18:35:16.570Z,31.40
2019-02-15T18:37:47.760Z,30.90
2019-02-15T18:40:18.885Z,33.40
2019-02-15T18:42:50.101Z,34.33
2019-02-15T18:45:21.243Z,30.17
2019-02-15T18:47:52.453Z,48.87
2019-02-15T18:50:23.699Z,35.67
2019-02-15T18:52:54.813Z,31.87
2019-02-15T18:55:26.113Z,53.67
2019-02-15T18:57:57.161Z,26.97
2019-02-15T19:00:28.496Z,45.47
2019-02-15T19:03:00.799Z,31.37
2019-02-15T19:05:31.922Z,29.37
2019-02-15T19:08:03.039Z,32.90
2019-02-15T19:10:34.238Z,28.80
2019-02-15T19:13:05.468Z,55.13
2019-02-15T19:15:36.582Z,29.17
2019-02-15T19:18:07.726Z,33.33
2019-02-15T19:20:39.108Z,46.27
2019-02-15T19:23:10.771Z,38.90
2019-02-15T19:25:41.885Z,32.00
2019-02-15T19:28:13.085Z,39.87
2019-02-15T19:30:44.200Z,28.30
2019-02-15T19:33:15.470Z,24.23
2019-02-15T19:35:46.544Z,43.58
2019-02-15T19:38:19.149Z,45.83
2019-02-15T19:40:50.694Z,29.87
2019-02-15T19:43:22.149Z,48.97
2019-02-15T19:45:54.742Z,44.00
2019-02-15T19:48:26.133Z,54.87
2019-02-15T19:50:57.542Z,46.47
2019-02-15T19:53:28.810Z,39.27
2019-02-15T19:56:00.304Z,35.63
2019-02-15T19:58:32.051Z,35.40
2019-02-15T20:01:03.526Z,36.60
2019-02-15T20:03:34.846Z,50.23
2019-02-15T20:06:05.863Z,55.57
2019-02-15T20:08:36.875Z,28.23
2019-02-15T20:11:09.667Z,32.40
2019-02-15T20:13:40.825Z,48.47
2019-02-15T20:16:11.921Z,36.33
2019-02-15T20:18:44.031Z,74.17
2019-02-15T20:21:15.039Z,39.73
2019-02-15T20:23:46.201Z,35.07
2019-02-15T20:26:17.334Z,38.57
2019-02-15T20:28:48.426Z,46.23
2019-02-15T20:31:20.505Z,37.20
2019-02-15T20:33:51.651Z,32.37
2019-02-15T20:36:22.788Z,29.87
2019-02-15T20:38:53.801Z,43.13
2019-02-15T20:41:24.912Z,25.00
2019-02-15T20:43:55.934Z,29.10
2019-02-15T20:46:26.932Z,27.97
2019-02-15T20:49:04.580Z,25.77
2019-02-15T20:51:34.325Z,32.03
2019-02-15T20:54:05.468Z,36.73
2019-02-15T20:56:36.455Z,39.23
2019-02-15T20:59:07.542Z,39.03
2019-02-15T21:01:38.711Z,31.13
2019-02-15T21:04:09.805Z,36.60
2019-02-15T21:06:40.778Z,38.10
2019-02-15T21:09:11.770Z,26.47
2019-02-15T21:11:42.827Z,30.37
2019-02-15T21:14:13.829Z,38.17
2019-02-15T21:16:44.817Z,36.17
2019-02-15T21:19:15.907Z,33.07
2019-02-15T21:21:47.090Z,24.63
2019-02-15T21:24:18.373Z,32.10
2019-02-15T21:26:49.499Z,28.60
2019-02-15T21:29:20.606Z,29.80
2019-02-15T21:31:51.676Z,55.43
2019-02-15T21:34:22.798Z,53.27
2019-02-15T21:36:53.818Z,31.10
2019-02-15T21:39:24.884Z,22.40
2019-02-15T21:41:56.023Z,29.10
2019-02-15T21:44:27.315Z,38.63
2019-02-15T21:46:59.376Z,35.03
2019-02-15T21:49:30.586Z,31.07
2019-02-15T21:52:01.721Z,64.93
2019-02-15T21:54:32.931Z,33.67
2019-02-15T21:57:04.015Z,34.70
2019-02-15T21:59:35.030Z,46.70
2019-02-15T22:02:06.524Z,32.60
2019-02-15T22:04:37.644Z,30.23
2019-02-15T22:07:08.702Z,37.20
2019-02-15T22:09:39.948Z,29.07
2019-02-15T22:12:11.000Z,27.10
2019-02-15T22:14:42.214Z,29.83
2019-02-15T22:17:13.208Z,27.10
2019-02-15T22:19:45.693Z,35.73
2019-02-15T22:22:16.897Z,26.53
2019-02-15T22:24:48.122Z,27.03
2019-02-15T22:27:22.188Z,29.40
2019-02-15T22:29:53.289Z,28.47
2019-02-15T22:32:24.584Z,32.90
2019-02-15T22:34:55.701Z,33.67
2019-02-15T22:37:26.788Z,27.67
2019-02-15T22:39:58.071Z,31.47
2019-02-15T22:42:29.153Z,30.83
2019-02-15T22:45:00.300Z,41.03
2019-02-15T22:47:31.423Z,24.97
2019-02-15T22:50:02.920Z,25.37
2019-02-15T22:52:34.139Z,24.90
2019-02-15T22:55:05.547Z,29.50
2019-02-15T22:57:36.713Z,20.47
2019-02-15T23:00:14.057Z,22.80
2019-02-15T23:02:46.350Z,23.80
2019-02-15T23:05:17.562Z,24.23
2019-02-15T23:07:50.282Z,21.97
2019-02-15T23:10:21.530Z,22.05
2019-02-15T23:12:52.897Z,22.10
2019-02-15T23:15:25.810Z,32.10
2019-02-15T23:17:56.875Z,24.30
2019-02-15T23:20:28.112Z,26.20
2019-02-15T23:22:59.294Z,24.67
2019-02-15T23:25:33.813Z,25.63
2019-02-15T23:28:04.871Z,24.85
2019-02-15T23:30:37.208Z,21.90
2019-02-15T23:33:08.552Z,27.30
2019-02-15T23:35:39.774Z,22.07
2019-02-15T23:38:11.062Z,21.20
2019-02-15T23:40:44.841Z,21.07
2019-02-15T23:43:16.245Z,29.93
2019-02-15T23:45:47.705Z,17.57
2019-02-15T23:48:18.874Z,18.50
2019-02-15T23:50:55.054Z,20.73
2019-02-15T23:53:22.723Z,17.53
2019-02-15T23:55:53.791Z,18.10
2019-02-15T23:58:24.783Z,20.60
